sensor_id;sensor_type;location;lat;lon;timestamp;P1;durP1;ratioP1;P2;durP2;ratioP2
54977;SDS011;40873;47.522;19.106;2022-08-06T00:02:18;13.20;;;6.00;;
54977;SDS011;40873;47.522;19.106;2022-08-06T00:04:51;10.23;;;6.07;;
54977;SDS011;40873;47.522;19.106;2022-08-06T00:07:18;10.32;;;6.32;;
54977;SDS011;40873;47.522;19.106;2022-08-06T00:09:51;11.07;;;4.97;;
54977;SDS011;40873;47.522;19.106;2022-08-06T00:12:27;10.45;;;6.03;;
54977;SDS011;40873;47.522;19.106;2022-08-06T00:14:59;7.53;;;5.77;;
54977;SDS011;40873;47.522;19.106;2022-08-06T00:17:37;9.50;;;5.50;;
54977;SDS011;40873;47.522;19.106;2022-08-06T00:20:05;7.22;;;5.72;;
54977;SDS011;40873;47.522;19.106;2022-08-06T00:22:36;10.52;;;5.20;;
54977;SDS011;40873;47.522;19.106;2022-08-06T00:25:03;9.52;;;5.13;;
54977;SDS011;40873;47.522;19.106;2022-08-06T00:27:31;12.23;;;5.60;;
54977;SDS011;40873;47.522;19.106;2022-08-06T00:30:05;8.10;;;5.22;;
54977;SDS011;40873;47.522;19.106;2022-08-06T00:32:47;8.10;;;4.85;;
54977;SDS011;40873;47.522;19.106;2022-08-06T00:35:19;9.70;;;5.78;;
54977;SDS011;40873;47.522;19.106;2022-08-06T00:37:49;9.07;;;5.57;;
54977;SDS011;40873;47.522;19.106;2022-08-06T00:40:22;10.13;;;6.20;;
54977;SDS011;40873;47.522;19.106;2022-08-06T00:42:50;7.95;;;5.35;;
54977;SDS011;40873;47.522;19.106;2022-08-06T00:45:20;10.40;;;5.80;;
54977;SDS011;40873;47.522;19.106;2022-08-06T00:47:51;8.25;;;5.45;;
54977;SDS011;40873;47.522;19.106;2022-08-06T00:50:29;8.55;;;5.90;;
54977;SDS011;40873;47.522;19.106;2022-08-06T00:52:57;12.40;;;7.15;;
54977;SDS011;40873;47.522;19.106;2022-08-06T00:55:26;10.80;;;6.85;;
54977;SDS011;40873;47.522;19.106;2022-08-06T00:58:03;8.95;;;5.70;;
54977;SDS011;40873;47.522;19.106;2022-08-06T01:00:31;8.77;;;5.63;;
54977;SDS011;40873;47.522;19.106;2022-08-06T01:03:04;10.95;;;5.35;;
54977;SDS011;40873;47.522;19.106;2022-08-06T01:05:31;7.75;;;5.35;;
54977;SDS011;40873;47.522;19.106;2022-08-06T01:08:18;9.45;;;6.15;;
54977;SDS011;40873;47.522;19.106;2022-08-06T01:10:46;9.48;;;6.05;;
54977;SDS011;40873;47.522;19.106;2022-08-06T01:13:17;11.13;;;6.32;;
54977;SDS011;40873;47.522;19.106;2022-08-06T01:15:57;14.32;;;6.07;;
54977;SDS011;40873;47.522;19.106;2022-08-06T01:18:57;8.35;;;5.03;;
54977;SDS011;40873;47.522;19.106;2022-08-06T01:25:02;8.63;;;6.53;;
54977;SDS011;40873;47.522;19.106;2022-08-06T01:30:26;8.40;;;5.82;;
54977;SDS011;40873;47.522;19.106;2022-08-06T01:33:00;8.68;;;5.68;;
54977;SDS011;40873;47.522;19.106;2022-08-06T01:35:42;6.65;;;5.32;;
54977;SDS011;40873;47.522;19.106;2022-08-06T01:38:41;10.32;;;6.72;;
54977;SDS011;40873;47.522;19.106;2022-08-06T01:41:25;9.15;;;6.05;;
54977;SDS011;40873;47.522;19.106;2022-08-06T01:44:28;9.05;;;5.65;;
54977;SDS011;40873;47.522;19.106;2022-08-06T01:47:01;8.30;;;5.72;;
54977;SDS011;40873;47.522;19.106;2022-08-06T01:49:41;7.15;;;5.38;;
54977;SDS011;40873;47.522;19.106;2022-08-06T01:52:49;12.02;;;5.63;;
54977;SDS011;40873;47.522;19.106;2022-08-06T01:55:27;8.10;;;5.55;;
54977;SDS011;40873;47.522;19.106;2022-08-06T01:58:18;8.93;;;6.22;;
54977;SDS011;40873;47.522;19.106;2022-08-06T02:00:55;12.00;;;5.63;;
54977;SDS011;40873;47.522;19.106;2022-08-06T02:03:32;8.40;;;5.22;;
54977;SDS011;40873;47.522;19.106;2022-08-06T02:06:17;6.95;;;5.43;;
54977;SDS011;40873;47.522;19.106;2022-08-06T02:08:54;11.30;;;5.35;;
54977;SDS011;40873;47.522;19.106;2022-08-06T02:11:23;7.95;;;5.70;;
54977;SDS011;40873;47.522;19.106;2022-08-06T02:14:11;7.30;;;5.43;;
54977;SDS011;40873;47.522;19.106;2022-08-06T02:16:44;9.52;;;5.82;;
54977;SDS011;40873;47.522;19.106;2022-08-06T02:19:12;8.48;;;5.55;;
54977;SDS011;40873;47.522;19.106;2022-08-06T02:21:45;9.77;;;5.78;;
54977;SDS011;40873;47.522;19.106;2022-08-06T02:24:18;9.05;;;6.25;;
54977;SDS011;40873;47.522;19.106;2022-08-06T02:26:49;11.73;;;6.25;;
54977;SDS011;40873;47.522;19.106;2022-08-06T02:29:17;7.95;;;5.68;;
54977;SDS011;40873;47.522;19.106;2022-08-06T02:31:47;7.82;;;5.57;;
54977;SDS011;40873;47.522;19.106;2022-08-06T02:34:20;9.38;;;6.22;;
54977;SDS011;40873;47.522;19.106;2022-08-06T02:36:57;11.57;;;5.97;;
54977;SDS011;40873;47.522;19.106;2022-08-06T02:39:32;10.20;;;6.65;;
54977;SDS011;40873;47.522;19.106;2022-08-06T02:45:15;14.73;;;7.72;;
54977;SDS011;40873;47.522;19.106;2022-08-06T02:48:02;8.45;;;5.95;;
54977;SDS011;40873;47.522;19.106;2022-08-06T02:50:36;14.02;;;6.35;;
54977;SDS011;40873;47.522;19.106;2022-08-06T02:53:08;13.63;;;6.90;;
54977;SDS011;40873;47.522;19.106;2022-08-06T02:55:52;10.13;;;6.18;;
54977;SDS011;40873;47.522;19.106;2022-08-06T03:01:03;10.95;;;5.22;;
54977;SDS011;40873;47.522;19.106;2022-08-06T03:03:34;8.50;;;6.28;;
54977;SDS011;40873;47.522;19.106;2022-08-06T03:06:21;15.25;;;6.10;;
54977;SDS011;40873;47.522;19.106;2022-08-06T03:08:55;11.10;;;6.88;;
54977;SDS011;40873;47.522;19.106;2022-08-06T03:11:23;12.55;;;6.43;;
54977;SDS011;40873;47.522;19.106;2022-08-06T03:13:57;10.10;;;6.03;;
54977;SDS011;40873;47.522;19.106;2022-08-06T03:16:28;12.23;;;6.03;;
54977;SDS011;40873;47.522;19.106;2022-08-06T03:19:02;11.40;;;6.18;;
54977;SDS011;40873;47.522;19.106;2022-08-06T03:21:49;17.33;;;8.07;;
54977;SDS011;40873;47.522;19.106;2022-08-06T03:24:23;24.80;;;8.50;;
54977;SDS011;40873;47.522;19.106;2022-08-06T03:26:53;16.98;;;7.47;;
54977;SDS011;40873;47.522;19.106;2022-08-06T03:29:25;36.05;;;9.23;;
54977;SDS011;40873;47.522;19.106;2022-08-06T03:31:53;24.08;;;8.48;;
54977;SDS011;40873;47.522;19.106;2022-08-06T03:34:25;15.60;;;7.47;;
54977;SDS011;40873;47.522;19.106;2022-08-06T03:36:56;22.65;;;9.48;;
54977;SDS011;40873;47.522;19.106;2022-08-06T03:39:26;14.30;;;6.60;;
54977;SDS011;40873;47.522;19.106;2022-08-06T03:41:55;18.92;;;7.20;;
54977;SDS011;40873;47.522;19.106;2022-08-06T03:44:34;17.35;;;8.27;;
54977;SDS011;40873;47.522;19.106;2022-08-06T03:47:09;20.27;;;6.75;;
54977;SDS011;40873;47.522;19.106;2022-08-06T03:52:27;15.63;;;6.40;;
54977;SDS011;40873;47.522;19.106;2022-08-06T03:54:58;10.40;;;6.38;;
54977;SDS011;40873;47.522;19.106;2022-08-06T03:57:32;13.93;;;7.90;;
54977;SDS011;40873;47.522;19.106;2022-08-06T04:00:07;21.15;;;9.73;;
54977;SDS011;40873;47.522;19.106;2022-08-06T04:02:37;10.98;;;6.95;;
54977;SDS011;40873;47.522;19.106;2022-08-06T04:05:12;13.43;;;6.65;;
54977;SDS011;40873;47.522;19.106;2022-08-06T04:07:42;16.60;;;6.53;;
54977;SDS011;40873;47.522;19.106;2022-08-06T04:10:26;18.48;;;6.85;;
54977;SDS011;40873;47.522;19.106;2022-08-06T04:13:04;13.32;;;7.88;;
54977;SDS011;40873;47.522;19.106;2022-08-06T04:15:54;10.85;;;6.60;;
54977;SDS011;40873;47.522;19.106;2022-08-06T04:18:24;13.73;;;6.50;;
54977;SDS011;40873;47.522;19.106;2022-08-06T04:20:59;10.80;;;6.10;;
54977;SDS011;40873;47.522;19.106;2022-08-06T04:23:47;8.88;;;6.25;;
54977;SDS011;40873;47.522;19.106;2022-08-06T04:26:16;8.18;;;5.80;;
54977;SDS011;40873;47.522;19.106;2022-08-06T04:28:46;11.80;;;5.95;;
54977;SDS011;40873;47.522;19.106;2022-08-06T04:31:24;8.48;;;5.53;;
54977;SDS011;40873;47.522;19.106;2022-08-06T04:34:17;17.45;;;5.93;;
54977;SDS011;40873;47.522;19.106;2022-08-06T04:36:52;9.75;;;6.63;;
54977;SDS011;40873;47.522;19.106;2022-08-06T04:39:21;11.15;;;6.68;;
54977;SDS011;40873;47.522;19.106;2022-08-06T04:42:03;6.88;;;5.53;;
54977;SDS011;40873;47.522;19.106;2022-08-06T04:44:31;8.98;;;6.20;;
54977;SDS011;40873;47.522;19.106;2022-08-06T04:46:58;7.13;;;6.43;;
54977;SDS011;40873;47.522;19.106;2022-08-06T04:49:25;8.00;;;6.47;;
54977;SDS011;40873;47.522;19.106;2022-08-06T04:52:22;8.50;;;5.63;;
54977;SDS011;40873;47.522;19.106;2022-08-06T04:55:11;7.20;;;5.82;;
54977;SDS011;40873;47.522;19.106;2022-08-06T04:57:51;9.45;;;6.53;;
54977;SDS011;40873;47.522;19.106;2022-08-06T05:00:32;8.82;;;5.25;;
54977;SDS011;40873;47.522;19.106;2022-08-06T05:03:20;5.50;;;4.78;;
54977;SDS011;40873;47.522;19.106;2022-08-06T05:08:38;6.45;;;4.90;;
54977;SDS011;40873;47.522;19.106;2022-08-06T05:11:12;7.38;;;4.93;;
54977;SDS011;40873;47.522;19.106;2022-08-06T05:13:43;5.80;;;4.53;;
54977;SDS011;40873;47.522;19.106;2022-08-06T05:16:17;10.55;;;5.00;;
54977;SDS011;40873;47.522;19.106;2022-08-06T05:18:51;8.55;;;4.95;;
54977;SDS011;40873;47.522;19.106;2022-08-06T05:21:42;5.72;;;4.65;;
54977;SDS011;40873;47.522;19.106;2022-08-06T05:24:31;8.52;;;5.07;;
54977;SDS011;40873;47.522;19.106;2022-08-06T05:27:05;7.93;;;4.90;;
54977;SDS011;40873;47.522;19.106;2022-08-06T05:29:32;5.53;;;4.65;;
54977;SDS011;40873;47.522;19.106;2022-08-06T05:32:01;7.43;;;5.05;;
54977;SDS011;40873;47.522;19.106;2022-08-06T05:34:35;10.40;;;5.13;;
54977;SDS011;40873;47.522;19.106;2022-08-06T05:37:03;6.78;;;4.40;;
54977;SDS011;40873;47.522;19.106;2022-08-06T05:39:35;6.18;;;4.50;;
54977;SDS011;40873;47.522;19.106;2022-08-06T05:42:22;7.28;;;4.13;;
54977;SDS011;40873;47.522;19.106;2022-08-06T05:44:51;7.22;;;4.50;;
54977;SDS011;40873;47.522;19.106;2022-08-06T05:47:19;5.90;;;4.45;;
54977;SDS011;40873;47.522;19.106;2022-08-06T05:49:54;5.65;;;4.28;;
54977;SDS011;40873;47.522;19.106;2022-08-06T05:52:31;7.97;;;4.45;;
54977;SDS011;40873;47.522;19.106;2022-08-06T05:55:13;5.53;;;4.03;;
54977;SDS011;40873;47.522;19.106;2022-08-06T05:57:59;6.88;;;4.57;;
54977;SDS011;40873;47.522;19.106;2022-08-06T06:00:31;5.00;;;4.13;;
54977;SDS011;40873;47.522;19.106;2022-08-06T06:03:13;4.55;;;3.53;;
54977;SDS011;40873;47.522;19.106;2022-08-06T06:05:58;8.02;;;4.60;;
54977;SDS011;40873;47.522;19.106;2022-08-06T06:08:43;7.57;;;4.20;;
54977;SDS011;40873;47.522;19.106;2022-08-06T06:11:27;8.40;;;4.00;;
54977;SDS011;40873;47.522;19.106;2022-08-06T06:17:25;6.75;;;4.65;;
54977;SDS011;40873;47.522;19.106;2022-08-06T06:29:06;6.88;;;3.70;;
54977;SDS011;40873;47.522;19.106;2022-08-06T06:49:11;8.05;;;4.20;;
54977;SDS011;40873;47.522;19.106;2022-08-06T06:52:08;5.53;;;4.13;;
54977;SDS011;40873;47.522;19.106;2022-08-06T06:54:45;7.50;;;4.90;;
54977;SDS011;40873;47.522;19.106;2022-08-06T06:57:31;6.55;;;4.32;;
54977;SDS011;40873;47.522;19.106;2022-08-06T07:00:08;8.00;;;4.15;;
54977;SDS011;40873;47.522;19.106;2022-08-06T07:02:56;7.65;;;4.57;;
54977;SDS011;40873;47.522;19.106;2022-08-06T07:05:26;6.70;;;4.55;;
54977;SDS011;40873;47.522;19.106;2022-08-06T07:08:16;9.30;;;4.78;;
54977;SDS011;40873;47.522;19.106;2022-08-06T07:11:03;7.95;;;4.40;;
54977;SDS011;40873;47.522;19.106;2022-08-06T07:13:32;6.43;;;4.18;;
54977;SDS011;40873;47.522;19.106;2022-08-06T07:16:17;7.32;;;4.13;;
54977;SDS011;40873;47.522;19.106;2022-08-06T07:19:02;7.78;;;4.50;;
54977;SDS011;40873;47.522;19.106;2022-08-06T07:21:30;4.63;;;3.95;;
54977;SDS011;40873;47.522;19.106;2022-08-06T07:23:58;12.52;;;4.50;;
54977;SDS011;40873;47.522;19.106;2022-08-06T07:26:35;4.85;;;4.10;;
54977;SDS011;40873;47.522;19.106;2022-08-06T07:29:16;7.03;;;4.18;;
54977;SDS011;40873;47.522;19.106;2022-08-06T07:32:04;7.45;;;4.38;;
54977;SDS011;40873;47.522;19.106;2022-08-06T07:34:55;5.38;;;4.13;;
54977;SDS011;40873;47.522;19.106;2022-08-06T07:37:25;7.85;;;4.18;;
54977;SDS011;40873;47.522;19.106;2022-08-06T07:40:05;5.65;;;4.85;;
54977;SDS011;40873;47.522;19.106;2022-08-06T07:42:36;12.60;;;4.68;;
54977;SDS011;40873;47.522;19.106;2022-08-06T07:45:04;6.13;;;4.50;;
54977;SDS011;40873;47.522;19.106;2022-08-06T07:47:42;6.53;;;4.30;;
54977;SDS011;40873;47.522;19.106;2022-08-06T07:50:20;7.28;;;4.53;;
54977;SDS011;40873;47.522;19.106;2022-08-06T07:52:54;7.40;;;4.05;;
54977;SDS011;40873;47.522;19.106;2022-08-06T07:55:22;9.50;;;4.78;;
54977;SDS011;40873;47.522;19.106;2022-08-06T07:58:07;11.40;;;4.82;;
54977;SDS011;40873;47.522;19.106;2022-08-06T08:00:35;6.50;;;3.97;;
54977;SDS011;40873;47.522;19.106;2022-08-06T08:03:04;6.57;;;4.70;;
54977;SDS011;40873;47.522;19.106;2022-08-06T08:06:10;26.83;;;5.00;;
54977;SDS011;40873;47.522;19.106;2022-08-06T08:08:55;4.70;;;3.88;;
54977;SDS011;40873;47.522;19.106;2022-08-06T08:11:26;6.63;;;4.15;;
54977;SDS011;40873;47.522;19.106;2022-08-06T08:14:16;5.57;;;4.28;;
54977;SDS011;40873;47.522;19.106;2022-08-06T08:16:48;13.30;;;4.72;;
54977;SDS011;40873;47.522;19.106;2022-08-06T08:19:20;5.63;;;4.30;;
54977;SDS011;40873;47.522;19.106;2022-08-06T08:21:50;6.35;;;4.30;;
54977;SDS011;40873;47.522;19.106;2022-08-06T08:24:17;8.77;;;4.05;;
54977;SDS011;40873;47.522;19.106;2022-08-06T08:26:44;5.85;;;4.00;;
54977;SDS011;40873;47.522;19.106;2022-08-06T08:29:31;6.30;;;4.03;;
54977;SDS011;40873;47.522;19.106;2022-08-06T08:32:00;4.68;;;3.92;;
54977;SDS011;40873;47.522;19.106;2022-08-06T08:34:30;6.30;;;4.32;;
54977;SDS011;40873;47.522;19.106;2022-08-06T08:36:59;11.88;;;4.25;;
54977;SDS011;40873;47.522;19.106;2022-08-06T08:39:26;8.10;;;4.13;;
54977;SDS011;40873;47.522;19.106;2022-08-06T08:44:58;8.70;;;4.53;;
54977;SDS011;40873;47.522;19.106;2022-08-06T08:47:26;6.45;;;3.90;;
54977;SDS011;40873;47.522;19.106;2022-08-06T08:50:15;5.85;;;3.80;;
54977;SDS011;40873;47.522;19.106;2022-08-06T08:52:47;6.90;;;3.88;;
54977;SDS011;40873;47.522;19.106;2022-08-06T08:55:17;9.80;;;4.00;;
54977;SDS011;40873;47.522;19.106;2022-08-06T08:58:07;5.97;;;3.90;;
54977;SDS011;40873;47.522;19.106;2022-08-06T09:00:55;6.40;;;3.60;;
54977;SDS011;40873;47.522;19.106;2022-08-06T09:03:22;4.65;;;3.70;;
54977;SDS011;40873;47.522;19.106;2022-08-06T09:05:49;6.28;;;3.85;;
54977;SDS011;40873;47.522;19.106;2022-08-06T09:08:19;3.60;;;3.30;;
54977;SDS011;40873;47.522;19.106;2022-08-06T09:11:07;5.47;;;3.60;;
54977;SDS011;40873;47.522;19.106;2022-08-06T09:13:54;4.47;;;3.33;;
54977;SDS011;40873;47.522;19.106;2022-08-06T09:16:28;3.83;;;3.03;;
54977;SDS011;40873;47.522;19.106;2022-08-06T09:18:59;6.00;;;3.78;;
54977;SDS011;40873;47.522;19.106;2022-08-06T09:21:27;4.28;;;3.13;;
54977;SDS011;40873;47.522;19.106;2022-08-06T09:23:56;5.68;;;3.33;;
54977;SDS011;40873;47.522;19.106;2022-08-06T09:26:24;9.45;;;3.42;;
54977;SDS011;40873;47.522;19.106;2022-08-06T09:29:16;7.03;;;3.75;;
54977;SDS011;40873;47.522;19.106;2022-08-06T09:31:57;4.45;;;3.08;;
54977;SDS011;40873;47.522;19.106;2022-08-06T09:34:33;4.22;;;2.95;;
54977;SDS011;40873;47.522;19.106;2022-08-06T09:37:05;3.47;;;2.92;;
54977;SDS011;40873;47.522;19.106;2022-08-06T09:39:35;7.65;;;3.00;;
54977;SDS011;40873;47.522;19.106;2022-08-06T09:42:48;3.97;;;2.55;;
54977;SDS011;40873;47.522;19.106;2022-08-06T09:45:18;3.00;;;2.70;;
54977;SDS011;40873;47.522;19.106;2022-08-06T09:48:07;5.47;;;2.92;;
54977;SDS011;40873;47.522;19.106;2022-08-06T09:50:47;4.25;;;2.58;;
54977;SDS011;40873;47.522;19.106;2022-08-06T09:53:17;4.97;;;3.25;;
54977;SDS011;40873;47.522;19.106;2022-08-06T09:55:51;3.80;;;2.75;;
54977;SDS011;40873;47.522;19.106;2022-08-06T10:00:57;4.13;;;3.00;;
54977;SDS011;40873;47.522;19.106;2022-08-06T10:03:49;3.80;;;2.92;;
54977;SDS011;40873;47.522;19.106;2022-08-06T10:06:49;4.75;;;3.00;;
54977;SDS011;40873;47.522;19.106;2022-08-06T10:09:20;3.63;;;2.70;;
54977;SDS011;40873;47.522;19.106;2022-08-06T10:12:25;4.90;;;3.53;;
54977;SDS011;40873;47.522;19.106;2022-08-06T10:14:53;6.82;;;3.28;;
54977;SDS011;40873;47.522;19.106;2022-08-06T10:17:22;4.88;;;2.90;;
54977;SDS011;40873;47.522;19.106;2022-08-06T10:22:51;4.65;;;3.00;;
54977;SDS011;40873;47.522;19.106;2022-08-06T10:25:23;4.47;;;2.53;;
54977;SDS011;40873;47.522;19.106;2022-08-06T10:27:56;4.68;;;3.08;;
54977;SDS011;40873;47.522;19.106;2022-08-06T10:30:26;4.50;;;2.85;;
54977;SDS011;40873;47.522;19.106;2022-08-06T10:33:02;4.03;;;2.63;;
54977;SDS011;40873;47.522;19.106;2022-08-06T10:35:43;7.65;;;2.83;;
54977;SDS011;40873;47.522;19.106;2022-08-06T10:38:15;10.27;;;3.97;;
54977;SDS011;40873;47.522;19.106;2022-08-06T10:41:01;4.40;;;2.90;;
54977;SDS011;40873;47.522;19.106;2022-08-06T10:43:33;7.05;;;3.50;;
54977;SDS011;40873;47.522;19.106;2022-08-06T10:46:03;3.47;;;3.00;;
54977;SDS011;40873;47.522;19.106;2022-08-06T10:48:36;3.47;;;3.17;;
54977;SDS011;40873;47.522;19.106;2022-08-06T10:51:25;6.15;;;2.70;;
54977;SDS011;40873;47.522;19.106;2022-08-06T10:54:13;3.65;;;2.92;;
54977;SDS011;40873;47.522;19.106;2022-08-06T10:56:48;7.43;;;3.20;;
54977;SDS011;40873;47.522;19.106;2022-08-06T10:59:15;3.33;;;2.85;;
54977;SDS011;40873;47.522;19.106;2022-08-06T11:05:24;5.45;;;3.10;;
54977;SDS011;40873;47.522;19.106;2022-08-06T11:14:34;4.60;;;3.30;;
54977;SDS011;40873;47.522;19.106;2022-08-06T11:17:03;8.48;;;3.60;;
54977;SDS011;40873;47.522;19.106;2022-08-06T11:19:37;4.05;;;3.28;;
54977;SDS011;40873;47.522;19.106;2022-08-06T11:22:36;4.95;;;3.17;;
54977;SDS011;40873;47.522;19.106;2022-08-06T11:25:08;4.65;;;3.35;;
54977;SDS011;40873;47.522;19.106;2022-08-06T11:27:55;3.72;;;3.40;;
54977;SDS011;40873;47.522;19.106;2022-08-06T11:33:17;6.47;;;3.20;;
54977;SDS011;40873;47.522;19.106;2022-08-06T11:35:46;3.80;;;3.40;;
54977;SDS011;40873;47.522;19.106;2022-08-06T11:44:26;7.60;;;3.70;;
54977;SDS011;40873;47.522;19.106;2022-08-06T11:47:08;5.50;;;3.38;;
54977;SDS011;40873;47.522;19.106;2022-08-06T11:49:40;4.10;;;3.47;;
54977;SDS011;40873;47.522;19.106;2022-08-06T11:55:11;5.93;;;3.45;;
54977;SDS011;40873;47.522;19.106;2022-08-06T11:58:35;5.10;;;3.60;;
54977;SDS011;40873;47.522;19.106;2022-08-06T12:00:54;4.78;;;3.55;;
54977;SDS011;40873;47.522;19.106;2022-08-06T12:03:36;4.13;;;3.28;;
54977;SDS011;40873;47.522;19.106;2022-08-06T12:09:04;12.05;;;4.35;;
54977;SDS011;40873;47.522;19.106;2022-08-06T12:11:42;4.72;;;4.22;;
54977;SDS011;40873;47.522;19.106;2022-08-06T12:14:36;5.95;;;4.90;;
54977;SDS011;40873;47.522;19.106;2022-08-06T12:17:15;8.43;;;4.85;;
54977;SDS011;40873;47.522;19.106;2022-08-06T12:19:44;10.15;;;4.75;;
54977;SDS011;40873;47.522;19.106;2022-08-06T12:22:29;9.55;;;5.38;;
54977;SDS011;40873;47.522;19.106;2022-08-06T12:24:58;7.20;;;4.72;;
54977;SDS011;40873;47.522;19.106;2022-08-06T12:27:38;8.10;;;4.93;;
54977;SDS011;40873;47.522;19.106;2022-08-06T12:30:20;9.75;;;5.50;;
54977;SDS011;40873;47.522;19.106;2022-08-06T12:33:03;6.18;;;5.38;;
54977;SDS011;40873;47.522;19.106;2022-08-06T12:35:47;5.45;;;4.90;;
54977;SDS011;40873;47.522;19.106;2022-08-06T12:38:19;7.07;;;5.75;;
54977;SDS011;40873;47.522;19.106;2022-08-06T12:40:51;10.48;;;6.93;;
54977;SDS011;40873;47.522;19.106;2022-08-06T12:43:36;9.93;;;6.80;;
54977;SDS011;40873;47.522;19.106;2022-08-06T12:46:12;8.82;;;6.53;;
54977;SDS011;40873;47.522;19.106;2022-08-06T12:48:49;6.93;;;6.22;;
54977;SDS011;40873;47.522;19.106;2022-08-06T12:51:17;11.53;;;6.53;;
54977;SDS011;40873;47.522;19.106;2022-08-06T12:53:59;10.95;;;6.82;;
54977;SDS011;40873;47.522;19.106;2022-08-06T12:56:29;7.53;;;6.28;;
54977;SDS011;40873;47.522;19.106;2022-08-06T12:59:02;10.70;;;6.32;;
54977;SDS011;40873;47.522;19.106;2022-08-06T13:01:32;14.88;;;6.65;;
54977;SDS011;40873;47.522;19.106;2022-08-06T13:04:21;10.13;;;6.63;;
54977;SDS011;40873;47.522;19.106;2022-08-06T13:06:57;7.30;;;6.15;;
54977;SDS011;40873;47.522;19.106;2022-08-06T13:09:27;11.23;;;6.50;;
54977;SDS011;40873;47.522;19.106;2022-08-06T13:12:17;8.60;;;7.70;;
54977;SDS011;40873;47.522;19.106;2022-08-06T13:15:11;11.07;;;6.60;;
54977;SDS011;40873;47.522;19.106;2022-08-06T13:18:01;10.77;;;6.30;;
54977;SDS011;40873;47.522;19.106;2022-08-06T13:21:01;9.85;;;7.03;;
54977;SDS011;40873;47.522;19.106;2022-08-06T13:23:39;7.10;;;6.38;;
54977;SDS011;40873;47.522;19.106;2022-08-06T13:26:12;7.53;;;6.57;;
54977;SDS011;40873;47.522;19.106;2022-08-06T13:32:05;7.93;;;6.95;;
54977;SDS011;40873;47.522;19.106;2022-08-06T13:34:54;9.23;;;6.70;;
54977;SDS011;40873;47.522;19.106;2022-08-06T13:40:38;7.82;;;6.95;;
54977;SDS011;40873;47.522;19.106;2022-08-06T13:43:18;8.23;;;6.57;;
54977;SDS011;40873;47.522;19.106;2022-08-06T13:46:16;9.43;;;6.68;;
54977;SDS011;40873;47.522;19.106;2022-08-06T13:48:53;9.57;;;6.25;;
54977;SDS011;40873;47.522;19.106;2022-08-06T13:51:24;10.07;;;6.70;;
54977;SDS011;40873;47.522;19.106;2022-08-06T13:53:54;7.88;;;6.50;;
54977;SDS011;40873;47.522;19.106;2022-08-06T13:56:23;7.50;;;6.70;;
54977;SDS011;40873;47.522;19.106;2022-08-06T13:58:56;7.63;;;6.47;;
54977;SDS011;40873;47.522;19.106;2022-08-06T14:01:24;7.07;;;6.38;;
54977;SDS011;40873;47.522;19.106;2022-08-06T14:04:10;6.80;;;6.10;;
54977;SDS011;40873;47.522;19.106;2022-08-06T14:06:39;7.13;;;5.63;;
54977;SDS011;40873;47.522;19.106;2022-08-06T14:09:11;9.45;;;5.95;;
54977;SDS011;40873;47.522;19.106;2022-08-06T14:11:47;9.43;;;5.28;;
54977;SDS011;40873;47.522;19.106;2022-08-06T14:14:20;10.38;;;6.47;;
54977;SDS011;40873;47.522;19.106;2022-08-06T14:16:50;9.27;;;5.40;;
54977;SDS011;40873;47.522;19.106;2022-08-06T14:19:17;6.30;;;5.28;;
54977;SDS011;40873;47.522;19.106;2022-08-06T14:22:05;6.03;;;5.10;;
54977;SDS011;40873;47.522;19.106;2022-08-06T14:24:33;6.38;;;5.28;;
54977;SDS011;40873;47.522;19.106;2022-08-06T14:27:08;7.85;;;4.57;;
54977;SDS011;40873;47.522;19.106;2022-08-06T14:29:44;7.13;;;4.88;;
54977;SDS011;40873;47.522;19.106;2022-08-06T14:32:31;8.07;;;4.80;;
54977;SDS011;40873;47.522;19.106;2022-08-06T14:34:58;8.60;;;5.07;;
54977;SDS011;40873;47.522;19.106;2022-08-06T14:37:30;5.20;;;4.60;;
54977;SDS011;40873;47.522;19.106;2022-08-06T14:40:16;6.28;;;5.05;;
54977;SDS011;40873;47.522;19.106;2022-08-06T14:43:23;6.20;;;4.50;;
54977;SDS011;40873;47.522;19.106;2022-08-06T14:46:23;7.10;;;4.38;;
54977;SDS011;40873;47.522;19.106;2022-08-06T14:48:55;7.68;;;3.20;;
54977;SDS011;40873;47.522;19.106;2022-08-06T14:51:25;5.25;;;3.78;;
54977;SDS011;40873;47.522;19.106;2022-08-06T14:54:12;6.55;;;2.88;;
54977;SDS011;40873;47.522;19.106;2022-08-06T14:56:41;5.15;;;2.95;;
54977;SDS011;40873;47.522;19.106;2022-08-06T14:59:17;6.18;;;3.42;;
54977;SDS011;40873;47.522;19.106;2022-08-06T15:01:44;6.40;;;3.25;;
54977;SDS011;40873;47.522;19.106;2022-08-06T15:04:12;4.25;;;3.20;;
54977;SDS011;40873;47.522;19.106;2022-08-06T15:06:51;4.97;;;2.75;;
54977;SDS011;40873;47.522;19.106;2022-08-06T15:09:24;5.22;;;2.90;;
54977;SDS011;40873;47.522;19.106;2022-08-06T15:12:13;6.07;;;2.63;;
54977;SDS011;40873;47.522;19.106;2022-08-06T15:15:00;5.57;;;2.47;;
54977;SDS011;40873;47.522;19.106;2022-08-06T15:17:31;5.65;;;2.83;;
54977;SDS011;40873;47.522;19.106;2022-08-06T15:20:18;6.13;;;2.70;;
54977;SDS011;40873;47.522;19.106;2022-08-06T15:25:18;3.00;;;2.40;;
54977;SDS011;40873;47.522;19.106;2022-08-06T15:28:06;3.42;;;2.30;;
54977;SDS011;40873;47.522;19.106;2022-08-06T15:30:35;3.63;;;2.58;;
54977;SDS011;40873;47.522;19.106;2022-08-06T15:33:04;3.13;;;2.20;;
54977;SDS011;40873;47.522;19.106;2022-08-06T15:35:37;3.58;;;2.22;;
54977;SDS011;40873;47.522;19.106;2022-08-06T15:38:25;4.82;;;2.67;;
54977;SDS011;40873;47.522;19.106;2022-08-06T15:40:57;5.03;;;2.20;;
54977;SDS011;40873;47.522;19.106;2022-08-06T15:43:26;3.10;;;2.22;;
54977;SDS011;40873;47.522;19.106;2022-08-06T15:46:09;7.03;;;2.45;;
54977;SDS011;40873;47.522;19.106;2022-08-06T15:48:37;3.28;;;1.90;;
54977;SDS011;40873;47.522;19.106;2022-08-06T15:51:23;2.95;;;1.92;;
54977;SDS011;40873;47.522;19.106;2022-08-06T15:53:56;6.15;;;2.60;;
54977;SDS011;40873;47.522;19.106;2022-08-06T15:56:25;3.47;;;2.13;;
54977;SDS011;40873;47.522;19.106;2022-08-06T15:59:13;4.20;;;2.50;;
54977;SDS011;40873;47.522;19.106;2022-08-06T16:01:47;6.28;;;2.85;;
54977;SDS011;40873;47.522;19.106;2022-08-06T16:04:29;4.72;;;2.70;;
54977;SDS011;40873;47.522;19.106;2022-08-06T16:07:02;5.10;;;2.80;;
54977;SDS011;40873;47.522;19.106;2022-08-06T16:09:31;4.93;;;2.60;;
54977;SDS011;40873;47.522;19.106;2022-08-06T16:12:19;2.60;;;2.15;;
54977;SDS011;40873;47.522;19.106;2022-08-06T16:14:47;4.32;;;2.38;;
54977;SDS011;40873;47.522;19.106;2022-08-06T16:17:24;3.28;;;2.88;;
54977;SDS011;40873;47.522;19.106;2022-08-06T16:20:12;4.68;;;2.38;;
54977;SDS011;40873;47.522;19.106;2022-08-06T16:22:49;2.58;;;1.90;;
54977;SDS011;40873;47.522;19.106;2022-08-06T16:25:18;9.50;;;2.85;;
54977;SDS011;40873;47.522;19.106;2022-08-06T16:27:46;2.55;;;2.13;;
54977;SDS011;40873;47.522;19.106;2022-08-06T16:30:17;5.47;;;3.05;;
54977;SDS011;40873;47.522;19.106;2022-08-06T16:32:44;4.25;;;2.63;;
54977;SDS011;40873;47.522;19.106;2022-08-06T16:35:14;5.03;;;2.47;;
54977;SDS011;40873;47.522;19.106;2022-08-06T16:37:48;10.60;;;2.83;;
54977;SDS011;40873;47.522;19.106;2022-08-06T16:40:21;5.82;;;2.40;;
54977;SDS011;40873;47.522;19.106;2022-08-06T16:42:50;4.57;;;2.85;;
54977;SDS011;40873;47.522;19.106;2022-08-06T16:45:18;3.97;;;2.60;;
54977;SDS011;40873;47.522;19.106;2022-08-06T16:47:49;4.80;;;3.17;;
54977;SDS011;40873;47.522;19.106;2022-08-06T16:50:38;5.22;;;2.50;;
54977;SDS011;40873;47.522;19.106;2022-08-06T16:53:06;3.78;;;2.55;;
54977;SDS011;40873;47.522;19.106;2022-08-06T16:55:54;5.18;;;2.40;;
54977;SDS011;40873;47.522;19.106;2022-08-06T16:58:22;3.10;;;2.10;;